createdAt,value
2022-10-03T00:01:33.463Z,72.75
2022-10-03T00:04:47.846Z,72.57
2022-10-03T00:08:01.641Z,72.73
2022-10-03T00:11:09.214Z,72.73
2022-10-03T00:14:25.894Z,72.79
2022-10-03T00:17:42.311Z,72.58
2022-10-03T00:21:08.233Z,72.65
2022-10-03T00:24:24.780Z,72.80
2022-10-03T00:28:06.864Z,72.85
2022-10-03T00:31:12.732Z,72.79
2022-10-03T00:34:32.016Z,72.77
2022-10-03T00:37:40.714Z,72.79
2022-10-03T00:41:12.256Z,72.78
2022-10-03T00:44:37.691Z,72.67
2022-10-03T00:47:47.518Z,72.79
2022-10-03T00:51:17.301Z,72.79
2022-10-03T00:54:37.334Z,72.96
2022-10-03T00:57:50.651Z,72.81
2022-10-03T01:01:02.584Z,73.01
2022-10-03T01:04:15.468Z,72.93
2022-10-03T01:07:48.129Z,72.88
2022-10-03T01:11:11.407Z,72.99
2022-10-03T01:14:24.863Z,72.94
2022-10-03T01:18:14.395Z,72.81
2022-10-03T01:21:45.591Z,72.91
2022-10-03T01:24:50.966Z,72.88
2022-10-03T01:28:39.105Z,72.99
2022-10-03T01:31:49.707Z,73.01
2022-10-03T01:35:06.424Z,73.06
2022-10-03T01:38:21.856Z,73.00
2022-10-03T01:41:23.330Z,73.14
2022-10-03T01:44:44.152Z,73.04
2022-10-03T01:47:54.836Z,73.16
2022-10-03T01:51:16.186Z,73.17
2022-10-03T01:54:42.458Z,73.21
2022-10-03T01:58:03.278Z,73.04
2022-10-03T02:01:42.239Z,72.99
2022-10-03T02:04:49.952Z,73.18
2022-10-03T02:08:05.158Z,73.24
2022-10-03T02:11:09.309Z,73.38
2022-10-03T02:14:22.589Z,73.37
2022-10-03T02:17:45.378Z,73.10
2022-10-03T02:21:07.571Z,73.24
2022-10-03T02:24:14.989Z,73.36
2022-10-03T02:27:35.217Z,73.24
2022-10-03T02:30:55.761Z,73.26
2022-10-03T02:34:24.131Z,73.31
2022-10-03T02:37:34.710Z,73.37
2022-10-03T02:41:01.008Z,73.24
2022-10-03T02:44:17.723Z,73.29
2022-10-03T02:47:46.419Z,73.30
2022-10-03T02:51:22.096Z,73.39
2022-10-03T02:54:29.541Z,73.30
2022-10-03T02:58:10.577Z,73.45
2022-10-03T03:01:42.680Z,73.56
2022-10-03T03:04:50.395Z,73.45
2022-10-03T03:08:33.035Z,73.43
2022-10-03T03:11:53.739Z,73.43
2022-10-03T03:15:12.328Z,73.59
2022-10-03T03:18:28.849Z,73.60
2022-10-03T03:21:57.700Z,73.53
2022-10-03T03:25:18.634Z,73.60
2022-10-03T03:28:45.713Z,73.63
2022-10-03T03:32:12.996Z,73.37
2022-10-03T03:35:33.236Z,73.52
2022-10-03T03:39:11.542Z,73.58
2022-10-03T03:42:12.985Z,73.58
2022-10-03T03:45:41.567Z,73.48
2022-10-03T03:48:50.988Z,73.47
2022-10-03T03:52:04.672Z,73.59
2022-10-03T03:55:33.647Z,73.60
2022-10-03T03:58:44.534Z,73.52
2022-10-03T04:02:04.008Z,73.45
2022-10-03T04:05:31.525Z,73.50
2022-10-03T04:09:03.131Z,73.64
2022-10-03T04:12:24.037Z,73.63
2022-10-03T04:15:44.030Z,73.56
2022-10-03T04:19:18.522Z,73.59
2022-10-03T04:22:42.916Z,73.61
2022-10-03T04:26:15.552Z,73.34
2022-10-03T04:29:42.009Z,73.52
2022-10-03T04:33:16.501Z,73.35
2022-10-03T04:36:32.973Z,73.56
2022-10-03T04:39:49.259Z,73.53
2022-10-03T04:42:57.771Z,73.59
2022-10-03T04:46:05.756Z,73.61
2022-10-03T04:49:26.167Z,73.51
2022-10-03T04:52:58.613Z,73.77
2022-10-03T04:56:21.833Z,73.82
2022-10-03T04:59:35.975Z,73.92
2022-10-03T05:02:59.377Z,73.75
2022-10-03T05:06:19.790Z,74.01
2022-10-03T05:09:51.142Z,73.85
2022-10-03T05:13:04.816Z,73.85
2022-10-03T05:16:29.625Z,73.88
2022-10-03T05:19:37.160Z,74.00
2022-10-03T05:23:25.608Z,73.89
2022-10-03T05:26:44.596Z,73.78
2022-10-03T05:30:03.135Z,73.85
2022-10-03T05:33:22.471Z,73.91
2022-10-03T05:36:23.954Z,73.75
2022-10-03T05:39:32.972Z,73.80
2022-10-03T05:42:44.356Z,73.85
2022-10-03T05:46:03.839Z,73.79
2022-10-03T05:49:23.726Z,73.90
2022-10-03T05:52:43.835Z,73.90
2022-10-03T05:56:04.081Z,73.99
2022-10-03T05:59:26.524Z,73.77
2022-10-03T06:02:51.295Z,73.99
2022-10-03T06:05:58.969Z,73.87
2022-10-03T06:09:25.263Z,73.80
2022-10-03T06:13:05.384Z,73.83
2022-10-03T06:16:26.004Z,73.76
2022-10-03T06:20:08.935Z,73.84
2022-10-03T06:23:37.368Z,73.70
2022-10-03T06:27:15.877Z,73.74
2022-10-03T06:30:21.875Z,73.71
2022-10-03T06:33:48.401Z,73.79
2022-10-03T06:36:54.656Z,73.60
2022-10-03T06:40:22.799Z,73.63
2022-10-03T06:44:10.880Z,73.58
2022-10-03T06:47:28.681Z,73.74
2022-10-03T06:50:49.806Z,73.63
2022-10-03T06:54:17.201Z,73.74
2022-10-03T06:57:43.529Z,73.57
2022-10-03T07:01:08.136Z,73.53
2022-10-03T07:04:12.731Z,73.37
2022-10-03T07:07:40.166Z,73.47
2022-10-03T07:11:09.086Z,73.67
2022-10-03T07:14:55.517Z,73.58
2022-10-03T07:17:59.577Z,73.41
2022-10-03T07:21:14.746Z,73.70
2022-10-03T07:24:40.875Z,73.52
2022-10-03T07:28:20.431Z,73.66
2022-10-03T07:31:25.193Z,73.35
2022-10-03T07:35:12.139Z,73.26
2022-10-03T07:38:47.178Z,73.56
2022-10-03T07:42:13.026Z,73.38
2022-10-03T07:45:30.621Z,73.21
2022-10-03T07:48:41.624Z,73.31
2022-10-03T07:52:25.325Z,73.22
2022-10-03T07:55:48.081Z,73.30
2022-10-03T07:58:58.742Z,73.30
2022-10-03T08:02:15.513Z,73.23
2022-10-03T08:05:25.000Z,73.18
2022-10-03T08:08:34.569Z,73.27
2022-10-03T08:12:10.219Z,73.16
2022-10-03T08:15:39.680Z,73.24
2022-10-03T08:19:20.289Z,73.29
2022-10-03T08:22:57.356Z,73.55
2022-10-03T08:26:06.946Z,73.44
2022-10-03T08:29:17.855Z,73.45
2022-10-03T08:32:48.737Z,73.49
2022-10-03T08:36:27.566Z,73.60
2022-10-03T08:39:37.945Z,73.65
2022-10-03T08:42:55.607Z,73.66
2022-10-03T08:46:06.016Z,73.74
2022-10-03T08:49:41.089Z,73.72
2022-10-03T08:53:12.302Z,73.88
2022-10-03T08:56:20.933Z,73.91
2022-10-03T08:59:50.532Z,73.99
2022-10-03T09:03:33.564Z,73.97
2022-10-03T09:07:23.658Z,74.15
2022-10-03T09:10:35.910Z,74.10
2022-10-03T09:13:57.153Z,74.01
2022-10-03T09:17:06.756Z,74.29
2022-10-03T09:20:24.987Z,74.30
2022-10-03T09:23:44.668Z,74.26
2022-10-03T09:27:04.735Z,74.19
2022-10-03T09:30:22.495Z,74.39
2022-10-03T09:33:58.008Z,74.22
2022-10-03T09:37:31.835Z,74.14
2022-10-03T09:41:10.432Z,74.33
2022-10-03T09:44:33.314Z,74.19
2022-10-03T09:47:43.883Z,74.17
2022-10-03T09:51:03.401Z,74.31
2022-10-03T09:54:23.271Z,74.28
2022-10-03T09:57:46.563Z,74.43
2022-10-03T10:01:31.960Z,74.41
2022-10-03T10:04:57.780Z,74.28
2022-10-03T10:08:33.554Z,74.12
2022-10-03T10:12:00.082Z,74.07
2022-10-03T10:15:40.963Z,74.24
2022-10-03T10:19:20.197Z,74.04
2022-10-03T10:22:31.903Z,74.19
2022-10-03T10:26:17.031Z,74.20
2022-10-03T10:30:03.041Z,74.04
2022-10-03T10:33:44.100Z,74.24
2022-10-03T10:37:23.022Z,74.17
2022-10-03T10:40:52.505Z,74.06
2022-10-03T10:44:31.970Z,74.28
2022-10-03T10:47:49.065Z,74.39
2022-10-03T10:51:21.537Z,74.19
2022-10-03T10:54:35.345Z,74.24
2022-10-03T10:58:04.480Z,74.08
2022-10-03T11:01:36.648Z,74.11
2022-10-03T11:05:31.914Z,74.00
2022-10-03T11:09:11.044Z,74.13
2022-10-03T11:12:50.124Z,74.40
2022-10-03T11:16:13.508Z,74.14
2022-10-03T11:19:46.280Z,74.42
2022-10-03T11:23:07.473Z,74.56
2022-10-03T11:26:39.076Z,74.72
2022-10-03T11:30:06.883Z,74.88
2022-10-03T11:33:30.013Z,74.74
2022-10-03T11:36:55.953Z,74.93
2022-10-03T11:40:23.819Z,75.01
2022-10-03T11:43:52.760Z,74.86
2022-10-03T11:47:15.749Z,75.06
2022-10-03T11:50:32.489Z,74.88
2022-10-03T11:54:26.397Z,74.71
2022-10-03T11:57:36.974Z,74.64
2022-10-03T12:00:42.126Z,74.90
2022-10-03T12:04:18.432Z,74.66
2022-10-03T12:07:58.568Z,74.69
2022-10-03T12:11:08.821Z,74.76
2022-10-03T12:14:27.027Z,74.73
2022-10-03T12:17:36.514Z,74.77
2022-10-03T12:21:25.857Z,74.89
2022-10-03T12:24:34.934Z,74.86
2022-10-03T12:27:55.015Z,74.64
2022-10-03T12:31:01.775Z,74.74
2022-10-03T12:34:29.638Z,74.69
2022-10-03T12:37:40.196Z,74.73
2022-10-03T12:40:51.507Z,74.69
2022-10-03T12:44:11.954Z,74.69
2022-10-03T12:47:24.268Z,74.96
2022-10-03T12:50:54.566Z,74.98
2022-10-03T12:54:14.957Z,74.73
2022-10-03T12:57:32.628Z,75.06
2022-10-03T13:00:46.900Z,75.02
2022-10-03T13:04:07.333Z,74.84
2022-10-03T13:07:27.862Z,74.86
2022-10-03T13:10:34.437Z,74.89
2022-10-03T13:13:48.148Z,74.72
2022-10-03T13:16:59.349Z,74.62
2022-10-03T13:20:00.917Z,74.53
2022-10-03T13:23:06.352Z,74.28
2022-10-03T13:26:18.153Z,74.46
2022-10-03T13:29:39.820Z,74.10
2022-10-03T13:32:44.651Z,74.02
2022-10-03T13:35:58.472Z,73.98
2022-10-03T13:39:13.047Z,73.67
2022-10-03T13:42:14.525Z,73.89
2022-10-03T13:45:24.551Z,74.01
2022-10-03T13:48:26.987Z,73.94
2022-10-03T13:51:31.521Z,74.24
2022-10-03T13:55:00.194Z,74.15
2022-10-03T13:58:25.826Z,74.19
2022-10-03T14:01:38.463Z,74.29
2022-10-03T14:04:43.263Z,74.22
2022-10-03T14:08:08.153Z,74.41
2022-10-03T14:11:22.169Z,74.50
2022-10-03T14:14:24.033Z,74.67
2022-10-03T14:17:30.970Z,74.84
2022-10-03T14:20:37.630Z,74.96
2022-10-03T14:23:50.066Z,75.00
2022-10-03T14:27:08.061Z,75.08
2022-10-03T14:30:17.491Z,75.11
2022-10-03T14:33:31.436Z,75.14
2022-10-03T14:36:51.725Z,75.28
2022-10-03T14:40:01.860Z,75.16
2022-10-03T14:43:05.943Z,75.19
2022-10-03T14:46:09.188Z,75.20
2022-10-03T14:49:47.180Z,75.27
2022-10-03T14:52:38.526Z,75.22
2022-10-03T14:55:45.326Z,75.41
2022-10-03T14:58:49.952Z,75.26
2022-10-03T15:01:54.150Z,75.15
2022-10-03T15:05:01.142Z,75.28
2022-10-03T15:08:09.450Z,75.33
2022-10-03T15:11:14.678Z,75.11
2022-10-03T15:14:16.485Z,75.38
2022-10-03T15:17:22.374Z,75.41
2022-10-03T15:20:26.289Z,75.20
2022-10-03T15:23:33.354Z,75.28
2022-10-03T15:26:36.343Z,75.24
2022-10-03T15:29:40.749Z,75.30
2022-10-03T15:32:46.093Z,75.27
2022-10-03T15:35:50.161Z,75.32
2022-10-03T15:38:53.570Z,75.21
2022-10-03T15:42:00.741Z,75.11
2022-10-03T15:45:04.955Z,75.18
2022-10-03T15:48:12.613Z,75.20
2022-10-03T15:51:18.788Z,75.27
2022-10-03T15:54:21.827Z,75.05
2022-10-03T15:57:34.222Z,74.90
2022-10-03T16:00:37.376Z,75.07
2022-10-03T16:03:47.119Z,75.11
2022-10-03T16:07:12.486Z,75.20
2022-10-03T16:10:18.009Z,74.97
2022-10-03T16:13:28.537Z,75.16
2022-10-03T16:16:37.772Z,75.02
2022-10-03T16:19:51.432Z,74.97
2022-10-03T16:22:54.751Z,75.00
2022-10-03T16:25:58.939Z,75.02
2022-10-03T16:29:26.751Z,75.07
2022-10-03T16:32:30.536Z,75.12
2022-10-03T16:35:34.465Z,75.05
2022-10-03T16:38:37.621Z,75.12
2022-10-03T16:41:43.686Z,74.98
2022-10-03T16:44:45.200Z,75.23
2022-10-03T16:48:06.906Z,75.42
2022-10-03T16:51:15.134Z,75.25
2022-10-03T16:54:18.459Z,75.33
2022-10-03T16:57:25.001Z,75.31
2022-10-03T17:00:36.895Z,75.45
2022-10-03T17:03:46.688Z,75.31
2022-10-03T17:06:49.427Z,75.54
2022-10-03T17:09:56.201Z,75.40
2022-10-03T17:13:03.362Z,75.36
2022-10-03T17:16:27.108Z,75.52
2022-10-03T17:19:52.075Z,75.52
2022-10-03T17:24:13.203Z,75.49
2022-10-03T17:27:10.498Z,75.35
2022-10-03T17:30:31.586Z,75.52
2022-10-03T17:34:05.040Z,75.59
2022-10-03T17:41:00.688Z,75.71
2022-10-03T17:44:09.995Z,75.77
2022-10-03T17:47:34.045Z,75.63
2022-10-03T17:50:53.951Z,75.61
2022-10-03T17:54:01.984Z,75.71
2022-10-03T17:57:15.050Z,75.69
2022-10-03T18:00:22.690Z,75.70
2022-10-03T18:03:28.248Z,75.74
2022-10-03T18:06:35.098Z,75.79
2022-10-03T18:09:40.496Z,75.73
2022-10-03T18:12:42.898Z,75.64
2022-10-03T18:15:56.759Z,75.63
2022-10-03T18:19:21.001Z,75.70
2022-10-03T18:22:40.538Z,75.80
2022-10-03T18:26:18.685Z,75.98
2022-10-03T18:29:29.355Z,75.78
2022-10-03T18:32:32.225Z,76.01
2022-10-03T18:35:35.348Z,75.79
2022-10-03T18:38:39.545Z,75.75
2022-10-03T18:41:45.014Z,75.94
2022-10-03T18:44:46.612Z,76.03
2022-10-03T18:47:54.434Z,76.10
2022-10-03T18:50:58.479Z,76.06
2022-10-03T18:54:18.525Z,75.86
2022-10-03T18:57:26.356Z,76.06
2022-10-03T19:00:33.558Z,75.69
2022-10-03T19:03:39.005Z,75.89
2022-10-03T19:06:43.194Z,75.81
2022-10-03T19:10:02.624Z,75.96
2022-10-03T19:13:13.240Z,75.88
2022-10-03T19:16:16.031Z,76.07
2022-10-03T19:19:24.560Z,76.28
2022-10-03T19:22:39.635Z,76.21
2022-10-03T19:25:42.913Z,76.25
2022-10-03T19:28:48.271Z,76.30
2022-10-03T19:31:52.174Z,76.38
2022-10-03T19:34:58.610Z,76.29
2022-10-03T19:38:03.255Z,76.44
2022-10-03T19:41:16.570Z,76.45
2022-10-03T19:44:23.320Z,76.28
2022-10-03T19:47:33.144Z,76.33
2022-10-03T19:50:37.169Z,76.38
2022-10-03T19:53:44.895Z,76.50
2022-10-03T19:56:50.119Z,76.46
2022-10-03T19:59:53.112Z,76.35
2022-10-03T20:02:56.211Z,76.64
2022-10-03T20:06:00.109Z,76.46
2022-10-03T20:09:03.473Z,76.31
2022-10-03T20:12:08.430Z,76.43
2022-10-03T20:15:23.894Z,76.43
2022-10-03T20:18:31.816Z,76.44
2022-10-03T20:21:34.762Z,76.44
2022-10-03T20:24:39.104Z,76.42
2022-10-03T20:27:51.395Z,76.38
2022-10-03T20:30:55.211Z,76.63
2022-10-03T20:33:58.930Z,76.35
2022-10-03T20:37:01.049Z,76.68
2022-10-03T20:40:27.620Z,76.66
2022-10-03T20:43:41.397Z,76.42
2022-10-03T20:47:01.692Z,76.53
2022-10-03T20:50:23.571Z,76.36
2022-10-03T20:53:28.499Z,76.52
2022-10-03T20:56:37.316Z,76.37
2022-10-03T20:59:50.934Z,76.52
2022-10-03T21:03:14.273Z,76.55
2022-10-03T21:06:21.628Z,76.30
2022-10-03T21:09:46.154Z,76.60
2022-10-03T21:12:49.701Z,76.61
2022-10-03T21:15:53.092Z,76.42
2022-10-03T21:18:56.969Z,76.61
2022-10-03T21:22:01.146Z,76.65
2022-10-03T21:25:04.825Z,76.58
2022-10-03T21:28:18.352Z,76.78
2022-10-03T21:31:27.618Z,76.69
2022-10-03T21:34:46.341Z,76.65
2022-10-03T21:37:59.719Z,76.69
2022-10-03T21:41:03.028Z,76.72
2022-10-03T21:44:11.216Z,76.63
2022-10-03T21:47:15.476Z,76.73
2022-10-03T21:50:19.599Z,76.60
2022-10-03T21:53:35.929Z,76.54
2022-10-03T21:56:52.395Z,76.62
2022-10-03T21:59:59.895Z,76.73
2022-10-03T22:03:01.278Z,76.70
2022-10-03T22:06:02.664Z,76.49
2022-10-03T22:09:10.538Z,76.65
2022-10-03T22:12:12.977Z,76.61
2022-10-03T22:15:36.957Z,76.56
2022-10-03T22:18:59.576Z,76.69
2022-10-03T22:22:19.862Z,76.65
2022-10-03T22:25:28.799Z,76.69
2022-10-03T22:28:30.239Z,76.56
2022-10-03T22:31:36.163Z,76.72
2022-10-03T22:34:56.504Z,76.83
2022-10-03T22:37:59.126Z,76.75
2022-10-03T22:41:02.636Z,76.64
2022-10-03T22:44:06.400Z,76.76
2022-10-03T22:47:14.759Z,76.71
2022-10-03T22:50:18.986Z,76.72
2022-10-03T22:53:22.926Z,76.84
2022-10-03T22:56:37.533Z,76.70
2022-10-03T22:59:45.314Z,76.66
2022-10-03T23:02:50.629Z,76.69
2022-10-03T23:06:04.433Z,76.59
2022-10-03T23:09:08.413Z,76.63
2022-10-03T23:12:10.860Z,76.72
2022-10-03T23:15:16.738Z,76.70
2022-10-03T23:18:37.045Z,76.60
2022-10-03T23:21:46.003Z,76.68
2022-10-03T23:24:52.840Z,76.56
2022-10-03T23:28:05.103Z,76.69
2022-10-03T23:31:06.825Z,76.58
2022-10-03T23:34:09.328Z,76.66
2022-10-03T23:37:10.718Z,76.76
2022-10-03T23:40:32.353Z,76.69
2022-10-03T23:43:33.755Z,76.70
2022-10-03T23:46:35.185Z,76.66
2022-10-03T23:49:37.311Z,76.60
2022-10-03T23:52:46.334Z,76.77
2022-10-03T23:55:47.766Z,76.53
2022-10-03T23:59:01.396Z,76.59
